Bo Bo, Indiana
Current Conditions -  °F | °C
As of 3:54 AM on Monday 24 Nov 2014 (Local Time) from KFWA Reporting Station
Light Rain Light Rain  
Wind Chill: 54°   Ceiling: 1000
Heat Index: 54°   Visibility: 5mi
Dew Point: 52°   Wind: 21mph
Humidity: 93%   Direction: 220°SW
Pressure: 29.19"   Gusts: 31mph
Location:  40.8317°N, 84.9398°W
Report Text: KFWA 240854Z 22018G27KT 5SM -RA BR OVC010 12/11 A2919 RMK AO2 PK WND 22029/0810 SLP882 P0001 60010 T01220111 53024 $
Loading
Personal Weather Stations






























Interactive Weather Map New forecast layout! Learn more

10-Day Weather Forecast

Advertisements
Track Severe Weather on mobile